Airport View

Enter AWOS ICAO identifier for current METAR.

ex. KFNL

KRWL 191853Z AUTO 26025G33KT 10SM CLR 21/00 A3000 RMK AO2 PK WND 25034/1757 SLP077 T02110000

19 Jun 2019 19:27

Frequency: 118.525

Phone: 307-328-0031

Other Area AWOS: KSAA - KEHY - KDWX - KCPR

TAF KRWL 191732Z 1918/2018 25018G30KT P6SM SCT100 BKN250 FM192100 25030G45KT P6SM SCT100 SCT250 FM200700 26015KT P6SM FEW250 FM201700 24019G28KT P6SM SCT250